Time;durP1;ratioP1;P1;durP2;ratioP2;P2;SDS_P1;SDS_P2;PMS_P1;PMS_P2;Temp;Humidity;BMP_temperature;BMP_pressure;BME280_temperature;BME280_humidity;BME280_pressure;Samples;Min_cycle;Max_cycle;Signal;HPM_P1;HPM_P2
2022/10/12 00:03:17;;;;;;;4.15;2.92;;;;;;;11.60;59.09;100977.66;10390545;28;20060;-71
2022/10/12 00:08:18;;;;;;;3.20;1.60;;;;;;;11.55;59.53;100977.16;10397071;28;20049;-71
2022/10/12 00:13:19;;;;;;;6.97;2.63;;;;;;;11.48;59.42;100975.88;10399090;28;20490;-71
2022/10/12 00:18:21;;;;;;;4.75;1.92;;;;;;;11.45;59.40;100976.97;10395992;28;20664;-71
2022/10/12 00:23:22;;;;;;;8.25;2.70;;;;;;;11.45;59.92;100976.97;10394679;28;20049;-69
2022/10/12 00:28:23;;;;;;;4.32;2.20;;;;;;;11.38;60.03;100972.19;10396981;28;20060;-70
2022/10/12 00:33:27;;;;;;;5.55;2.40;;;;;;;11.40;59.53;100975.59;10397962;28;20053;-70
2022/10/12 00:38:28;;;;;;;8.47;2.40;;;;;;;11.44;59.45;100971.72;10396680;28;20578;-71
2022/10/12 00:43:37;;;;;;;7.13;2.95;;;;;;;11.29;59.67;100963.91;10404229;28;20056;-70
2022/10/12 00:48:40;;;;;;;6.93;2.22;;;;;;;11.24;61.07;100974.03;10404097;28;20060;-70
2022/10/12 00:53:47;;;;;;;6.45;2.35;;;;;;;11.20;59.81;100966.34;10401094;28;21197;-71
2022/10/12 00:58:49;;;;;;;5.55;1.88;;;;;;;11.09;61.06;100967.13;10443565;28;20041;-71
2022/10/12 01:03:50;;;;;;;5.95;2.13;;;;;;;11.07;60.41;100969.91;10405680;28;20060;-71
2022/10/12 01:08:53;;;;;;;4.63;1.88;;;;;;;11.11;61.74;100967.91;10405715;28;20052;-70
2022/10/12 01:13:56;;;;;;;4.30;1.95;;;;;;;11.21;60.05;100987.56;10403767;28;20056;-71
2022/10/12 01:19:28;;;;;;;5.25;2.00;;;;;;;11.04;60.95;100985.28;10406453;28;20061;-71
2022/10/12 01:24:42;;;;;;;6.78;2.47;;;;;;;10.99;60.91;100984.72;10414290;28;20392;-71
2022/10/12 01:30:13;;;;;;;4.95;1.95;;;;;;;10.99;61.20;100976.72;10444989;28;20045;-71
2022/10/12 01:35:26;;;;;;;5.22;2.03;;;;;;;10.98;60.66;100981.22;10407741;28;20393;-72
2022/10/12 01:40:44;;;;;;;3.65;2.10;;;;;;;10.93;61.09;100980.72;10423949;28;20527;-70
2022/10/12 01:45:45;;;;;;;6.57;2.55;;;;;;;10.94;60.47;100959.28;10403511;28;20435;-70
2022/10/12 01:50:49;;;;;;;6.30;2.70;;;;;;;10.88;61.68;100964.19;10437223;28;20137;-72
2022/10/12 01:55:59;;;;;;;7.22;2.20;;;;;;;10.71;62.14;100960.06;10467816;28;20719;-71
2022/10/12 02:01:36;;;;;;;6.45;2.75;;;;;;;10.62;62.04;100961.53;10451127;28;20060;-72
2022/10/12 02:06:54;;;;;;;5.28;2.30;;;;;;;10.59;62.80;100959.09;10425378;28;20470;-70
2022/10/12 02:12:01;;;;;;;5.25;2.88;;;;;;;10.52;62.67;100961.31;10430464;28;20041;-75
2022/10/12 02:17:05;;;;;;;5.38;2.30;;;;;;;10.67;62.21;100955.88;10457777;28;20109;-72
2022/10/12 02:22:08;;;;;;;8.00;2.33;;;;;;;10.59;62.75;100953.75;10465105;28;20105;-76
2022/10/12 02:27:12;;;;;;;4.07;2.50;;;;;;;10.61;62.46;100942.06;10465133;28;20109;-70
2022/10/12 02:32:26;;;;;;;5.20;2.20;;;;;;;10.51;62.19;100930.34;10426971;28;20053;-71
2022/10/12 02:37:35;;;;;;;6.77;2.50;;;;;;;10.52;62.67;100936.50;10481625;28;20051;-71
2022/10/12 02:42:41;;;;;;;4.93;2.13;;;;;;;10.48;62.74;100927.91;10458034;28;20048;-71
2022/10/12 02:48:06;;;;;;;6.78;2.90;;;;;;;10.43;62.97;100919.34;10399432;28;20045;-71
2022/10/12 02:53:07;;;;;;;;;;;;;;;10.31;63.32;100925.50;10405941;28;20041;-71
2022/10/12 02:58:08;;;;;;;5.35;2.25;;;;;;;10.39;64.42;100909.91;10399984;28;20458;-70
2022/10/12 03:03:10;;;;;;;7.57;2.40;;;;;;;10.45;62.52;100912.13;10395178;28;20427;-70
2022/10/12 03:08:11;;;;;;;5.53;2.28;;;;;;;10.35;63.19;100914.56;10396409;28;20046;-70
2022/10/12 03:13:13;;;;;;;9.05;2.50;;;;;;;10.27;63.35;100928.38;10398104;28;20056;-70
2022/10/12 03:18:14;;;;;;;5.35;2.55;;;;;;;10.23;63.59;100921.56;10402014;28;20056;-71
2022/10/12 03:23:15;;;;;;;6.90;2.83;;;;;;;10.19;64.16;100930.72;10413547;28;20059;-71
2022/10/12 03:28:16;;;;;;;6.45;2.42;;;;;;;10.16;64.35;100930.91;10395304;28;20057;-70
2022/10/12 03:33:18;;;;;;;7.53;2.75;;;;;;;10.14;63.42;100929.31;10398036;28;20044;-69
2022/10/12 03:38:20;;;;;;;6.18;3.30;;;;;;;10.06;63.97;100928.03;10396241;28;20809;-70
2022/10/12 03:43:21;;;;;;;6.03;2.80;;;;;;;10.02;64.00;100923.88;10393377;28;20132;-71
2022/10/12 03:48:23;;;;;;;7.68;3.22;;;;;;;9.99;63.95;100920.56;10393049;28;20052;-70
2022/10/12 03:53:24;;;;;;;6.53;3.30;;;;;;;9.99;64.35;100918.75;10391398;28;20154;-71
2022/10/12 03:58:25;;;;;;;8.00;3.00;;;;;;;9.86;65.78;100928.50;10399190;28;20423;-70
2022/10/12 04:03:27;;;;;;;7.85;3.15;;;;;;;9.91;64.96;100927.25;10396835;28;20603;-71
2022/10/12 04:08:29;;;;;;;4.50;2.92;;;;;;;10.08;64.49;100927.94;10400771;28;20052;-69
2022/10/12 04:13:30;;;;;;;5.97;3.28;;;;;;;10.16;64.24;100928.25;10396145;28;20521;-70
2022/10/12 04:18:32;;;;;;;5.63;3.20;;;;;;;10.03;64.22;100924.75;10405215;28;20045;-70
2022/10/12 04:23:33;;;;;;;7.32;2.53;;;;;;;9.91;65.14;100931.72;10402865;28;20045;-70
2022/10/12 04:28:35;;;;;;;5.32;2.55;;;;;;;9.89;64.56;100915.88;10401709;28;20084;-71
2022/10/12 04:33:36;;;;;;;6.57;2.85;;;;;;;9.88;65.01;100927.47;10402741;28;20057;-71
2022/10/12 04:38:37;;;;;;;7.50;2.97;;;;;;;9.89;64.47;100923.84;10404113;28;20559;-70
2022/10/12 04:43:39;;;;;;;5.95;2.83;;;;;;;9.71;64.88;100914.44;10405283;28;20056;-71
2022/10/12 04:48:40;;;;;;;8.63;3.42;;;;;;;9.80;65.63;100931.56;10389912;28;22206;-71
2022/10/12 04:53:41;;;;;;;6.72;2.80;;;;;;;9.70;64.98;100940.16;10378813;28;20961;-71
2022/10/12 04:58:43;;;;;;;7.68;3.22;;;;;;;9.73;65.42;100942.63;10387499;28;20282;-70
2022/10/12 05:03:44;;;;;;;5.55;2.97;;;;;;;9.75;65.25;100929.22;10387006;28;20050;-72
2022/10/12 05:08:45;;;;;;;7.32;3.08;;;;;;;9.71;65.04;100943.66;10386860;28;20536;-73
2022/10/12 05:13:47;;;;;;;6.68;3.30;;;;;;;9.62;65.59;100941.63;10393129;28;20223;-70
2022/10/12 05:18:48;;;;;;;10.90;3.30;;;;;;;9.54;65.71;100939.47;10429059;28;20064;-71
2022/10/12 05:23:51;;;;;;;6.22;3.17;;;;;;;9.55;65.60;100941.19;10437440;28;20815;-70
2022/10/12 05:28:52;;;;;;;4.97;2.83;;;;;;;9.64;65.63;100945.06;10409484;28;20410;-71
2022/10/12 05:33:53;;;;;;;7.68;3.38;;;;;;;9.59;65.38;100937.34;10425083;28;20086;-71
2022/10/12 05:38:55;;;;;;;7.60;3.28;;;;;;;9.62;65.34;100938.97;10405910;28;20053;-71
2022/10/12 05:43:56;;;;;;;8.75;3.50;;;;;;;9.65;65.88;100939.63;10428003;28;20052;-70
2022/10/12 05:48:57;;;;;;;6.15;3.55;;;;;;;9.70;65.57;100942.00;10425201;28;20052;-71
2022/10/12 05:53:59;;;;;;;7.40;3.22;;;;;;;9.64;65.89;100935.25;10419837;28;20053;-69
2022/10/12 05:59:00;;;;;;;6.43;4.03;;;;;;;9.58;65.98;100935.66;10428831;28;20606;-72
2022/10/12 06:04:02;;;;;;;7.18;4.15;;;;;;;9.54;66.11;100940.31;10431180;28;20053;-74
2022/10/12 06:09:03;;;;;;;5.78;3.35;;;;;;;9.49;67.00;100934.47;10448218;28;20043;-73
2022/10/12 06:14:04;;;;;;;7.00;2.95;;;;;;;9.53;66.01;100938.63;10432910;28;20044;-71
2022/10/12 06:19:05;;;;;;;6.95;4.05;;;;;;;9.63;65.49;100938.88;10447769;28;20045;-69
2022/10/12 06:24:07;;;;;;;4.82;2.88;;;;;;;9.57;65.81;100928.63;10441842;28;20057;-73
2022/10/12 06:29:08;;;;;;;7.32;3.67;;;;;;;9.57;65.95;100927.78;10469732;28;20050;-74
2022/10/12 06:34:10;;;;;;;8.45;3.83;;;;;;;9.57;65.72;100923.31;10412604;28;20064;-71
2022/10/12 06:39:11;;;;;;;8.57;4.40;;;;;;;9.71;65.74;100935.69;10419483;28;20634;-69
2022/10/12 06:44:13;;;;;;;7.97;3.35;;;;;;;9.84;65.39;100947.22;10422879;28;20055;-70
2022/10/12 06:49:15;;;;;;;6.57;4.00;;;;;;;10.08;65.15;100947.38;10407732;28;20045;-70
2022/10/12 06:54:17;;;;;;;5.47;3.22;;;;;;;10.20;64.20;100940.38;10406280;28;20053;-71
2022/10/12 06:59:21;;;;;;;6.82;3.30;;;;;;;10.30;63.76;100939.75;10420909;28;20141;-70
2022/10/12 07:04:22;;;;;;;8.13;4.00;;;;;;;10.57;63.64;100943.22;10446025;28;20878;-70
2022/10/12 07:09:24;;;;;;;8.32;3.17;;;;;;;10.76;62.27;100936.59;10448584;28;20543;-70
2022/10/12 07:14:25;;;;;;;7.78;3.47;;;;;;;10.93;61.76;100946.91;10446903;28;20045;-73
2022/10/12 07:19:26;;;;;;;5.10;2.80;;;;;;;11.05;61.57;100939.00;10409300;28;20044;-71
2022/10/12 07:24:35;;;;;;;7.78;4.50;;;;;;;11.26;61.03;100929.47;10433143;28;20056;-72
2022/10/12 07:29:37;;;;;;;6.78;2.70;;;;;;;11.50;60.33;100941.97;10436595;28;20076;-71
2022/10/12 07:34:38;;;;;;;6.72;3.45;;;;;;;11.76;60.25;100949.88;10408227;28;20594;-73
2022/10/12 07:39:40;;;;;;;9.07;3.15;;;;;;;11.99;59.30;100951.69;10426068;28;20517;-71
2022/10/12 07:44:41;;;;;;;3.80;2.70;;;;;;;12.14;59.15;100948.81;10438158;28;20071;-73
2022/10/12 07:49:43;;;;;;;5.13;2.95;;;;;;;12.21;59.50;100955.41;10407855;28;20048;-70
2022/10/12 07:54:44;;;;;;;8.57;2.85;;;;;;;12.33;58.60;100954.44;10404208;28;20048;-71
2022/10/12 07:59:46;;;;;;;7.72;3.05;;;;;;;12.46;57.68;100948.16;10422744;28;20053;-72
2022/10/12 08:04:47;;;;;;;4.93;2.85;;;;;;;12.67;57.77;100957.19;10418051;28;20659;-73
2022/10/12 08:09:48;;;;;;;6.18;3.20;;;;;;;12.88;58.25;100960.00;10393296;28;20183;-72
2022/10/12 08:14:50;;;;;;;4.28;2.78;;;;;;;13.08;56.90;100958.41;10382972;28;20053;-69
2022/10/12 08:19:51;;;;;;;5.80;3.33;;;;;;;13.32;57.23;100952.06;10399768;28;20132;-72
2022/10/12 08:24:52;;;;;;;6.20;3.45;;;;;;;13.54;57.09;100961.03;10380107;28;20057;-71
2022/10/12 08:29:54;;;;;;;7.60;3.47;;;;;;;13.85;57.13;100947.81;10382987;28;20049;-72
2022/10/12 08:34:55;;;;;;;6.93;2.53;;;;;;;14.17;55.11;100947.75;10385032;28;20055;-72
2022/10/12 08:39:57;;;;;;;8.85;3.53;;;;;;;14.49;55.11;100953.06;10381931;28;20853;-70
2022/10/12 08:45:31;;;;;;;9.43;3.10;;;;;;;14.81;54.45;100951.28;10402525;28;20592;-72
2022/10/12 08:50:45;;;;;;;4.97;2.97;;;;;;;15.06;54.03;100939.25;10416963;28;20045;-73
2022/10/12 08:55:46;;;;;;;7.97;4.75;;;;;;;15.45;51.96;100938.50;10415146;28;20068;-69
2022/10/12 09:00:52;;;;;;;9.45;5.53;;;;;;;15.60;52.25;100947.84;10400209;28;20064;-72
2022/10/12 09:06:10;;;;;;;12.40;6.65;;;;;;;16.07;51.83;100947.19;10406372;28;20051;-71
2022/10/12 09:11:37;;;;;;;6.85;3.08;;;;;;;16.53;50.06;100950.91;10421732;28;20066;-71
2022/10/12 09:16:45;;;;;;;5.40;3.65;;;;;;;16.94;49.60;100948.81;10422990;28;20059;-71
2022/10/12 09:21:48;;;;;;;11.20;7.97;;;;;;;17.38;48.91;100944.63;10407178;28;20053;-71
2022/10/12 09:26:52;;;;;;;8.43;3.53;;;;;;;17.66;48.66;100938.19;10419588;28;21149;-73
2022/10/12 09:32:23;;;;;;;7.80;3.88;;;;;;;18.18;47.03;100934.00;10438849;28;20768;-70
2022/10/12 09:37:27;;;;;;;6.47;3.00;;;;;;;18.71;45.57;100926.75;10422464;28;20080;-71
2022/10/12 09:42:30;;;;;;;8.23;4.18;;;;;;;19.51;43.59;100939.03;10400223;28;20485;-72
2022/10/12 09:47:32;;;;;;;5.20;3.55;;;;;;;21.00;40.64;100925.28;10425344;28;20114;-71
2022/10/12 09:52:34;;;;;;;6.45;3.35;;;;;;;23.82;35.78;100914.19;10424189;28;20080;-68
2022/10/12 09:57:38;;;;;;;5.65;3.08;;;;;;;25.17;33.51;100922.25;10396727;28;20045;-71
2022/10/12 10:02:48;;;;;;;6.28;3.50;;;;;;;25.49;31.11;100911.66;10376772;28;20172;-69
2022/10/12 10:07:49;;;;;;;5.82;3.47;;;;;;;24.58;33.44;100902.69;10381582;28;20064;-70
2022/10/12 10:12:53;;;;;;;6.18;3.40;;;;;;;24.20;34.25;100911.19;10383947;28;20053;-72
2022/10/12 10:17:58;;;;;;;6.40;3.03;;;;;;;24.51;33.98;100907.22;10383756;28;20055;-71
2022/10/12 10:23:02;;;;;;;7.18;3.78;;;;;;;26.42;31.22;100900.81;10376840;28;20056;-69
2022/10/12 10:28:21;;;;;;;8.68;4.60;;;;;;;29.54;27.51;100896.84;10376044;28;20053;-72
2022/10/12 10:33:23;;;;;;;8.65;3.50;;;;;;;31.38;24.61;100891.13;10377335;28;20679;-73
2022/10/12 10:38:25;;;;;;;6.82;4.32;;;;;;;32.43;23.24;100890.69;10376928;28;20060;-71
2022/10/12 10:43:30;;;;;;;8.70;5.28;;;;;;;33.23;22.91;100895.00;10377565;28;20959;-73
2022/10/12 10:48:50;;;;;;;5.85;3.53;;;;;;;34.45;20.70;100894.38;10364826;28;20056;-72
2022/10/12 10:53:52;;;;;;;5.95;4.07;;;;;;;35.28;19.46;100887.28;10358119;28;20060;-72
2022/10/12 10:59:11;;;;;;;4.65;3.95;;;;;;;35.19;20.03;100881.41;10372820;28;20743;-73
2022/10/12 11:04:20;;;;;;;6.22;3.97;;;;;;;33.55;21.51;100869.38;10377574;28;20052;-70
2022/10/12 11:09:37;;;;;;;9.80;4.20;;;;;;;35.49;19.42;100851.31;10378256;28;20151;-71
2022/10/12 11:14:50;;;;;;;6.80;3.85;;;;;;;37.15;17.75;100861.69;10370169;28;20061;-74
2022/10/12 11:20:16;;;;;;;5.07;3.42;;;;;;;37.87;17.64;100852.81;10374315;28;20048;-74
2022/10/12 11:25:29;;;;;;;7.65;3.50;;;;;;;38.37;17.23;100844.22;10373415;28;20773;-75
2022/10/12 11:30:39;;;;;;;5.20;3.40;;;;;;;36.05;18.46;100842.97;10374954;28;20049;-75
2022/10/12 11:35:44;;;;;;;7.05;3.35;;;;;;;36.93;18.45;100829.66;10384805;28;20496;-74
2022/10/12 11:40:50;;;;;;;10.32;4.93;;;;;;;38.63;16.55;100833.63;10381506;28;20478;-74
2022/10/12 11:46:16;;;;;;;6.60;4.80;;;;;;;39.23;16.08;100821.94;10381597;28;20120;-72
2022/10/12 11:51:18;;;;;;;8.25;5.13;;;;;;;40.20;15.89;100814.94;10381310;28;20042;-73
2022/10/12 11:56:41;;;;;;;7.57;4.70;;;;;;;40.93;15.60;100815.91;10392295;28;20068;-73
2022/10/12 12:01:57;;;;;;;7.28;5.18;;;;;;;40.90;15.21;100799.78;10399856;28;20184;-75
2022/10/12 12:07:04;;;;;;;9.05;5.07;;;;;;;40.77;15.10;100789.47;10420206;28;20143;-72
2022/10/12 12:12:17;;;;;;;6.53;4.38;;;;;;;40.64;15.81;100789.19;10390274;28;20041;-75
2022/10/12 12:17:18;;;;;;;7.15;4.63;;;;;;;39.52;16.39;100775.53;10383890;28;21194;-74
2022/10/12 12:22:35;;;;;;;10.98;5.43;;;;;;;38.27;17.64;100761.81;10380521;28;20052;-73
2022/10/12 12:27:53;;;;;;;8.50;4.50;;;;;;;35.45;20.63;100773.53;10414723;28;20067;-74
2022/10/12 12:33:14;;;;;;;9.07;5.63;;;;;;;33.03;22.64;100775.09;10401322;28;21185;-73
2022/10/12 12:38:32;;;;;;;5.95;4.40;;;;;;;36.82;19.80;100768.97;10379228;28;20099;-72
2022/10/12 12:43:48;;;;;;;10.02;5.78;;;;;;;34.57;21.69;100757.91;10385508;28;20037;-74
2022/10/12 12:48:50;;;;;;;7.38;5.68;;;;;;;35.03;21.57;100760.78;10379366;28;20740;-75
2022/10/12 12:53:56;;;;;;;8.25;5.38;;;;;;;29.72;27.77;100763.44;10383748;28;20064;-72
2022/10/12 12:59:45;;;;;;;11.95;6.78;;;;;;;26.56;32.44;100762.41;10378493;28;20045;-72
2022/10/12 13:05:18;;;;;;;9.90;6.63;;;;;;;25.11;35.89;100767.81;10380269;28;20130;-68
2022/10/12 13:10:31;;;;;;;12.38;7.28;;;;;;;23.92;38.21;100759.75;10379327;28;20147;-70
2022/10/12 13:15:48;;;;;;;12.10;6.78;;;;;;;23.51;39.56;100770.50;10379396;28;20464;-71
2022/10/12 13:20:50;;;;;;;7.72;6.45;;;;;;;23.40;39.51;100759.13;10384517;28;20700;-71
2022/10/12 13:25:57;;;;;;;10.15;5.95;;;;;;;23.08;40.83;100755.06;10378642;28;20068;-71
2022/10/12 13:31:26;;;;;;;9.38;6.25;;;;;;;22.48;42.45;100749.78;10378840;28;20055;-74
2022/10/12 13:36:31;;;;;;;10.98;6.85;;;;;;;22.38;42.74;100739.25;10375607;28;20052;-72
2022/10/12 13:41:33;;;;;;;8.27;5.63;;;;;;;25.40;37.06;100734.75;10389875;28;20073;-72
2022/10/12 13:46:40;;;;;;;8.45;5.47;;;;;;;28.28;32.06;100740.47;10387296;28;20056;-73
2022/10/12 13:51:45;;;;;;;10.45;6.95;;;;;;;29.77;29.80;100731.50;10385217;28;20056;-72
2022/10/12 13:56:52;;;;;;;7.28;5.32;;;;;;;27.74;32.70;100738.28;10390578;28;20068;-73
2022/10/12 14:01:59;;;;;;;10.65;5.85;;;;;;;26.22;34.45;100736.31;10384939;28;20101;-72
2022/10/12 14:07:05;;;;;;;11.32;7.03;;;;;;;23.81;39.23;100727.69;10392935;28;20125;-72
2022/10/12 14:12:08;;;;;;;8.15;6.18;;;;;;;22.60;42.35;100710.28;10392257;28;20051;-72
2022/10/12 14:17:28;;;;;;;8.48;6.03;;;;;;;22.90;42.83;100726.47;10406596;28;20076;-72
2022/10/12 14:22:32;;;;;;;9.25;5.68;;;;;;;23.05;42.29;100729.13;10421997;28;20055;-71
2022/10/12 14:27:37;;;;;;;11.68;7.10;;;;;;;22.36;43.38;100724.19;10385270;28;20049;-72
2022/10/12 14:32:40;;;;;;;11.85;7.05;;;;;;;21.79;44.34;100720.28;10386055;28;20061;-71
2022/10/12 14:37:42;;;;;;;12.00;7.22;;;;;;;21.35;45.59;100717.28;10387296;28;20045;-71
2022/10/12 14:42:56;;;;;;;12.05;7.22;;;;;;;20.92;47.95;100716.94;10385243;28;20913;-71
2022/10/12 14:47:58;;;;;;;10.10;7.32;;;;;;;20.76;47.87;100696.28;10382843;28;20048;-71
2022/10/12 14:53:03;;;;;;;9.02;6.93;;;;;;;20.58;47.89;100703.78;10383715;28;20064;-72
2022/10/12 14:58:07;;;;;;;7.15;6.45;;;;;;;20.34;48.76;100697.47;10386411;28;20511;-72
2022/10/12 15:03:08;;;;;;;11.32;7.65;;;;;;;20.23;49.45;100695.19;10390938;28;20059;-72
2022/10/12 15:08:09;;;;;;;10.02;7.20;;;;;;;19.98;49.87;100697.97;10400417;28;20462;-73
2022/10/12 15:13:12;;;;;;;9.98;7.40;;;;;;;19.86;50.68;100696.66;10395979;28;20060;-70
2022/10/12 15:18:13;;;;;;;8.82;7.03;;;;;;;19.68;51.09;100702.25;10389754;28;20056;-70
2022/10/12 15:23:14;;;;;;;8.80;6.90;;;;;;;19.50;52.07;100702.47;10386532;28;20057;-71
2022/10/12 15:28:17;;;;;;;10.70;7.20;;;;;;;19.42;52.89;100704.16;10385609;28;20040;-71
2022/10/12 15:33:18;;;;;;;10.88;7.10;;;;;;;19.29;53.19;100693.06;10387080;28;20048;-70
2022/10/12 15:38:20;;;;;;;11.88;7.55;;;;;;;19.19;53.05;100684.28;10383137;28;20057;-70
2022/10/12 15:43:21;;;;;;;9.98;8.27;;;;;;;18.97;53.27;100689.31;10380529;28;20793;-69
2022/10/12 15:48:22;;;;;;;8.55;7.68;;;;;;;18.70;54.25;100682.38;10386358;28;20804;-71
2022/10/12 15:53:25;;;;;;;10.63;7.75;;;;;;;18.60;56.39;100687.91;10379859;28;20056;-71
2022/10/12 15:58:26;;;;;;;8.45;7.65;;;;;;;18.65;56.47;100673.94;10378590;28;20056;-70
2022/10/12 16:03:30;;;;;;;10.65;8.85;;;;;;;18.59;56.24;100674.59;10374530;28;20099;-72
2022/10/12 16:08:31;;;;;;;12.27;9.23;;;;;;;18.49;57.09;100674.75;10357966;28;20416;-71
2022/10/12 16:13:33;;;;;;;12.45;9.30;;;;;;;18.35;58.40;100671.69;10379489;28;21456;-72
2022/10/12 16:18:38;;;;;;;12.40;8.48;;;;;;;18.26;58.22;100675.34;10386726;28;20064;-73
2022/10/12 16:23:40;;;;;;;11.20;8.57;;;;;;;18.10;58.57;100664.53;10391379;28;20048;-71
2022/10/12 16:28:41;;;;;;;13.85;9.35;;;;;;;18.01;59.33;100671.72;10392948;28;24163;-71
2022/10/12 16:33:43;;;;;;;16.52;11.27;;;;;;;17.95;59.02;100664.28;10384362;28;20037;-71
2022/10/12 16:38:44;;;;;;;13.88;9.73;;;;;;;17.88;59.68;100661.38;10396435;28;20041;-71
2022/10/12 16:43:46;;;;;;;15.88;10.90;;;;;;;17.83;60.04;100664.56;10384383;28;20076;-72
2022/10/12 16:48:47;;;;;;;13.32;10.68;;;;;;;17.74;59.72;100675.44;10385949;28;20072;-76
2022/10/12 16:53:48;;;;;;;14.05;10.68;;;;;;;17.68;60.60;100674.22;10385469;28;20055;-75
2022/10/12 16:58:51;;;;;;;14.02;10.27;;;;;;;17.66;60.42;100682.47;10381462;28;20048;-73
2022/10/12 17:03:52;;;;;;;12.60;9.45;;;;;;;17.62;60.51;100681.09;10389939;28;20048;-72
2022/10/12 17:08:57;;;;;;;12.30;9.45;;;;;;;17.54;60.81;100683.75;10384179;28;20525;-71
2022/10/12 17:14:02;;;;;;;14.68;10.23;;;;;;;17.42;60.50;100669.69;10380113;28;20095;-73
2022/10/12 17:19:04;;;;;;;12.90;10.68;;;;;;;17.41;61.17;100673.38;10379082;28;20327;-71
2022/10/12 17:24:05;;;;;;;15.95;10.18;;;;;;;17.37;62.07;100673.84;10380219;28;20059;-71
2022/10/12 17:29:10;;;;;;;12.25;10.30;;;;;;;17.24;62.29;100676.97;10374208;28;20108;-73
2022/10/12 17:34:23;;;;;;;16.35;11.50;;;;;;;17.10;63.05;100683.78;10379188;28;20049;-70
2022/10/12 17:39:28;;;;;;;17.70;11.10;;;;;;;17.13;63.34;100695.06;10379088;28;20443;-70
2022/10/12 17:44:29;;;;;;;15.48;11.13;;;;;;;17.08;62.79;100691.13;10377838;28;20512;-71
2022/10/12 17:49:31;;;;;;;15.77;11.63;;;;;;;17.03;62.97;100674.63;10377651;28;20045;-73
2022/10/12 17:54:33;;;;;;;16.88;13.38;;;;;;;17.06;63.27;100677.00;10380989;28;20048;-72
2022/10/12 17:59:34;;;;;;;14.52;11.95;;;;;;;16.94;63.46;100685.28;10380467;28;21370;-69
2022/10/12 18:04:35;;;;;;;16.05;12.52;;;;;;;16.96;64.69;100687.84;10402889;28;20082;-71
2022/10/12 18:09:37;;;;;;;13.70;12.30;;;;;;;17.02;64.70;100697.13;10419357;28;20067;-71
2022/10/12 18:14:38;;;;;;;13.52;11.23;;;;;;;17.04;65.15;100684.38;10424693;28;20052;-71
2022/10/12 18:19:39;;;;;;;16.05;12.25;;;;;;;17.01;65.54;100682.00;10400935;28;20078;-73
2022/10/12 18:24:41;;;;;;;13.73;11.23;;;;;;;16.87;66.20;100678.84;10425074;28;20060;-72
2022/10/12 18:29:42;;;;;;;16.63;12.35;;;;;;;16.75;66.82;100677.34;10408442;28;20060;-70
2022/10/12 18:34:44;;;;;;;13.63;12.05;;;;;;;16.67;66.11;100686.19;10390293;28;20053;-71
2022/10/12 18:39:45;;;;;;;13.02;11.52;;;;;;;16.47;65.87;100682.81;10381287;28;20183;-70
2022/10/12 18:44:46;;;;;;;13.43;10.52;;;;;;;16.45;66.17;100679.41;10377745;28;20121;-71
2022/10/12 18:49:48;;;;;;;14.63;11.88;;;;;;;16.41;66.83;100678.03;10378776;28;20434;-72
2022/10/12 18:54:50;;;;;;;15.98;11.75;;;;;;;16.40;67.58;100682.53;10377311;28;20049;-70
2022/10/12 18:59:52;;;;;;;17.48;12.13;;;;;;;16.36;67.75;100681.19;10376318;28;20057;-71
2022/10/12 19:04:54;;;;;;;14.68;11.93;;;;;;;16.24;68.76;100661.75;10358053;28;20053;-70
2022/10/12 19:09:55;;;;;;;17.10;12.23;;;;;;;16.18;68.65;100672.22;10369939;28;20700;-73
2022/10/12 19:14:57;;;;;;;15.52;12.43;;;;;;;16.17;68.67;100668.69;10373338;28;20045;-72
2022/10/12 19:19:59;;;;;;;15.10;12.10;;;;;;;16.07;69.02;100682.16;10376720;28;20049;-71
2022/10/12 19:25:00;;;;;;;13.05;11.85;;;;;;;16.05;69.28;100683.31;10377221;28;20049;-72
2022/10/12 19:30:02;;;;;;;14.93;13.02;;;;;;;16.02;69.13;100683.63;10378149;28;20048;-71
2022/10/12 19:35:04;;;;;;;17.20;13.25;;;;;;;15.88;69.49;100688.50;10387108;28;20063;-72
2022/10/12 19:40:06;;;;;;;17.98;14.10;;;;;;;15.88;69.79;100685.81;10374962;28;20244;-73
2022/10/12 19:45:08;;;;;;;17.38;13.32;;;;;;;15.79;69.90;100683.97;10369660;28;22164;-70
2022/10/12 19:50:09;;;;;;;21.65;14.95;;;;;;;15.77;70.21;100688.63;10375407;28;20521;-72
2022/10/12 19:55:11;;;;;;;16.02;13.73;;;;;;;15.67;70.53;100685.13;10374179;28;20127;-71
2022/10/12 20:00:13;;;;;;;17.38;14.27;;;;;;;15.63;70.49;100694.47;10373593;28;20397;-72
2022/10/12 20:05:14;;;;;;;14.98;13.45;;;;;;;15.59;71.15;100687.72;10373083;28;20061;-72
2022/10/12 20:10:16;;;;;;;16.30;14.60;;;;;;;15.55;71.68;100695.19;10371375;28;20905;-75
2022/10/12 20:15:17;;;;;;;18.35;14.60;;;;;;;15.45;71.43;100697.91;10374673;28;20075;-73
2022/10/12 20:20:20;;;;;;;19.77;16.45;;;;;;;15.44;71.91;100704.25;10372540;28;20063;-72
2022/10/12 20:25:21;;;;;;;18.52;16.50;;;;;;;15.33;72.06;100699.06;10374178;28;20053;-71
2022/10/12 20:30:23;;;;;;;20.30;16.60;;;;;;;15.29;72.01;100709.22;10376627;28;20045;-73
2022/10/12 20:35:24;;;;;;;17.90;14.63;;;;;;;15.23;72.18;100707.09;10374802;28;20055;-73
2022/10/12 20:40:26;;;;;;;18.38;14.40;;;;;;;15.01;73.19;100692.16;10367713;28;20089;-74
2022/10/12 20:45:27;;;;;;;19.20;16.05;;;;;;;15.07;72.86;100698.78;10373831;28;20049;-73
2022/10/12 20:50:29;;;;;;;21.27;15.57;;;;;;;14.95;73.32;100695.41;10391998;28;20049;-72
2022/10/12 20:55:30;;;;;;;18.40;16.48;;;;;;;14.78;74.25;100687.06;10414930;28;20737;-71
2022/10/12 21:00:31;;;;;;;16.80;15.00;;;;;;;14.76;74.11;100689.06;10428589;28;20048;-72
2022/10/12 21:05:33;;;;;;;23.38;16.10;;;;;;;14.71;74.80;100693.97;10420881;28;20114;-73
2022/10/12 21:10:35;;;;;;;15.68;13.73;;;;;;;14.79;74.62;100690.63;10399224;28;20068;-72
2022/10/12 21:15:48;;;;;;;19.58;15.38;;;;;;;14.86;74.33;100702.44;10402977;28;20052;-73
2022/10/12 21:20:58;;;;;;;18.50;14.45;;;;;;;14.91;74.37;100699.38;10401525;28;20049;-73
2022/10/12 21:26:07;;;;;;;16.25;14.48;;;;;;;14.92;73.80;100691.19;10428708;28;20041;-73
2022/10/12 21:31:10;;;;;;;17.42;14.30;;;;;;;14.79;74.82;100685.25;10429676;28;20055;-74
2022/10/12 21:36:13;;;;;;;16.45;14.77;;;;;;;14.83;74.47;100695.56;10429344;28;20045;-74
2022/10/12 21:41:16;;;;;;;19.13;15.75;;;;;;;14.75;74.62;100700.75;10418152;28;20053;-70
2022/10/12 21:46:20;;;;;;;17.98;14.65;;;;;;;14.74;74.76;100699.09;10408270;28;20989;-73
2022/10/12 21:51:23;;;;;;;20.85;15.82;;;;;;;14.60;75.62;100696.78;10409186;28;20056;-72
2022/10/12 21:56:27;;;;;;;16.08;14.43;;;;;;;14.56;75.92;100689.97;10399676;28;20053;-72
2022/10/12 22:01:35;;;;;;;17.42;15.40;;;;;;;14.46;76.17;100682.78;10417051;28;20056;-71
2022/10/12 22:06:37;;;;;;;17.80;15.77;;;;;;;14.30;77.08;100680.63;10411276;28;20056;-72
2022/10/12 22:11:38;;;;;;;18.90;14.90;;;;;;;14.22;77.90;100693.03;10403668;28;20056;-72
2022/10/12 22:16:42;;;;;;;21.75;15.93;;;;;;;14.06;78.27;100674.78;10446705;28;20076;-73
2022/10/12 22:21:45;;;;;;;17.83;16.00;;;;;;;13.87;79.13;100678.25;10450376;28;20093;-73
2022/10/12 22:26:46;;;;;;;16.17;14.73;;;;;;;13.75;80.15;100673.00;10449049;28;20485;-71
2022/10/12 22:31:47;;;;;;;18.35;14.90;;;;;;;13.72;80.04;100680.41;10416489;28;20048;-73
2022/10/12 22:36:49;;;;;;;19.00;14.98;;;;;;;13.71;80.17;100668.88;10403600;28;20142;-71
2022/10/12 22:41:50;;;;;;;17.88;14.82;;;;;;;13.89;78.53;100681.66;10435076;28;20055;-74
2022/10/12 22:46:51;;;;;;;15.73;14.07;;;;;;;13.87;78.28;100683.59;10450854;28;20097;-74
2022/10/12 22:51:53;;;;;;;17.10;15.07;;;;;;;13.75;78.40;100678.34;10448748;28;20104;-76
2022/10/12 22:56:54;;;;;;;16.73;14.32;;;;;;;13.62;78.79;100677.72;10446309;28;20053;-73
2022/10/12 23:01:56;;;;;;;17.40;14.43;;;;;;;13.46;79.22;100669.31;10417020;28;20828;-72
2022/10/12 23:06:57;;;;;;;16.77;15.02;;;;;;;13.40;79.99;100673.38;10399447;28;20049;-70
2022/10/12 23:11:58;;;;;;;17.63;14.93;;;;;;;13.30;80.27;100659.91;10392765;28;20060;-71